createdAt,value
2018-04-25T00:03:10.646Z,7.60
2018-04-25T00:08:13.220Z,14.80
2018-04-25T00:13:15.798Z,7.90
2018-04-25T00:18:18.377Z,14.47
2018-04-25T00:23:22.336Z,8.77
2018-04-25T00:28:25.181Z,13.70
2018-04-25T00:33:27.780Z,6.97
2018-04-25T00:38:33.378Z,11.27
2018-04-25T00:43:36.727Z,12.07
2018-04-25T00:48:40.106Z,14.30
2018-04-25T00:53:43.433Z,9.47
2018-04-25T00:58:46.792Z,13.73
2018-04-25T01:03:49.356Z,12.93
2018-04-25T01:08:52.169Z,9.40
2018-04-25T01:13:54.809Z,9.63
2018-04-25T01:18:58.233Z,11.70
2018-04-25T01:24:00.813Z,11.37
2018-04-25T01:29:11.815Z,11.93
2018-04-25T01:34:16.880Z,12.90
2018-04-25T01:39:20.465Z,10.93
2018-04-25T01:44:39.927Z,12.33
2018-04-25T01:49:52.330Z,11.73
2018-04-25T01:55:07.749Z,10.70
2018-04-25T02:00:22.962Z,10.17
2018-04-25T02:05:25.701Z,16.57
2018-04-25T02:10:28.658Z,15.40
2018-04-25T02:15:32.153Z,11.50
2018-04-25T02:20:35.452Z,14.47
2018-04-25T02:25:38.681Z,11.03
2018-04-25T02:30:41.268Z,10.90
2018-04-25T02:35:43.906Z,8.97
2018-04-25T02:40:47.259Z,13.47
2018-04-25T02:45:50.301Z,8.90
2018-04-25T02:50:52.876Z,14.13
2018-04-25T02:55:55.452Z,16.47
2018-04-25T03:00:59.128Z,11.00
2018-04-25T03:06:01.822Z,14.27
2018-04-25T03:16:36.239Z,10.00
2018-04-25T03:21:39.617Z,11.33
2018-04-25T03:26:43.556Z,14.17
2018-04-25T03:31:46.134Z,12.57
2018-04-25T03:36:55.220Z,12.00
2018-04-25T03:41:58.856Z,14.60
2018-04-25T03:47:02.198Z,12.13
2018-04-25T03:52:04.788Z,11.17
2018-04-25T03:57:07.588Z,10.43
2018-04-25T04:02:10.167Z,10.23
2018-04-25T04:07:13.909Z,14.63
2018-04-25T04:12:16.474Z,8.97
2018-04-25T04:17:19.050Z,12.63
2018-04-25T04:22:21.651Z,10.37
2018-04-25T04:27:24.277Z,15.13
2018-04-25T04:32:28.178Z,16.00
2018-04-25T04:37:31.419Z,18.07
2018-04-25T04:42:34.753Z,11.23
2018-04-25T04:47:37.901Z,15.03
2018-04-25T04:52:40.852Z,17.83
2018-04-25T04:57:44.203Z,17.27
2018-04-25T05:02:46.954Z,14.80
2018-04-25T05:07:49.876Z,11.77
2018-04-25T05:12:55.912Z,12.03
2018-04-25T05:17:58.479Z,14.80
2018-04-25T05:23:01.357Z,16.13
2018-04-25T05:28:04.688Z,14.03
2018-04-25T05:33:07.268Z,18.97
2018-04-25T05:38:12.401Z,17.00
2018-04-25T05:43:15.076Z,20.00
2018-04-25T05:48:18.818Z,18.40
2018-04-25T05:53:22.184Z,16.33
2018-04-25T05:58:24.756Z,24.30
2018-04-25T06:03:28.318Z,16.03
2018-04-25T06:08:30.918Z,17.20
2018-04-25T06:13:33.572Z,18.70
2018-04-25T06:18:36.499Z,20.80
2018-04-25T06:23:40.123Z,29.90
2018-04-25T06:28:44.048Z,19.57
2018-04-25T06:33:47.379Z,15.17
2018-04-25T06:38:50.919Z,18.87
2018-04-25T06:43:53.934Z,19.57
2018-04-25T06:48:56.522Z,18.47
2018-04-25T06:53:59.550Z,16.50
2018-04-25T06:59:02.693Z,15.30
2018-04-25T07:04:05.804Z,16.70
2018-04-25T07:09:09.815Z,20.20
2018-04-25T07:14:12.413Z,17.23
2018-04-25T07:19:14.974Z,13.90
2018-04-25T07:24:18.130Z,18.83
2018-04-25T07:29:20.713Z,15.40
2018-04-25T07:34:23.298Z,18.17
2018-04-25T07:39:26.418Z,15.83
2018-04-25T07:44:29.064Z,14.90
2018-04-25T07:49:32.725Z,11.40
2018-04-25T07:54:36.785Z,17.03
2018-04-25T07:59:40.425Z,18.47
2018-04-25T08:04:44.363Z,11.20
2018-04-25T08:09:47.697Z,11.10
2018-04-25T08:15:03.091Z,18.37
2018-04-25T08:20:18.487Z,11.77
2018-04-25T08:25:21.842Z,11.00
2018-04-25T08:30:24.424Z,14.60
2018-04-25T08:35:28.260Z,13.87
2018-04-25T08:40:31.233Z,14.30
2018-04-25T08:45:35.634Z,11.63
2018-04-25T08:50:38.536Z,13.30
2018-04-25T08:55:41.198Z,12.30
2018-04-25T09:00:44.261Z,15.00
2018-04-25T09:05:47.657Z,14.33
2018-04-25T09:10:50.207Z,17.33
2018-04-25T09:15:53.979Z,20.57
2018-04-25T09:20:56.559Z,14.73
2018-04-25T09:25:59.692Z,12.93
2018-04-25T09:31:02.308Z,16.93
2018-04-25T09:36:05.164Z,19.50
2018-04-25T09:41:10.217Z,14.30
2018-04-25T09:46:13.273Z,19.37
2018-04-25T09:51:16.111Z,17.17
2018-04-25T09:56:19.456Z,13.03
2018-04-25T10:01:27.907Z,19.53
2018-04-25T10:06:30.481Z,14.60
2018-04-25T10:11:33.333Z,16.10
2018-04-25T10:16:35.940Z,21.73
2018-04-25T10:21:39.092Z,16.70
2018-04-25T10:26:42.240Z,21.17
2018-04-25T10:31:45.199Z,17.17
2018-04-25T10:36:48.784Z,17.83
2018-04-25T10:41:51.708Z,22.50
2018-04-25T10:46:54.287Z,17.80
2018-04-25T10:51:56.867Z,15.63
2018-04-25T10:57:00.132Z,21.50
2018-04-25T11:02:04.775Z,13.43
2018-04-25T11:07:10.637Z,18.40
2018-04-25T11:12:13.863Z,16.53
2018-04-25T11:17:17.179Z,17.97
2018-04-25T11:22:21.220Z,18.63
2018-04-25T11:27:23.809Z,15.10
2018-04-25T11:32:28.761Z,21.00
2018-04-25T11:37:32.179Z,15.70
2018-04-25T11:42:35.783Z,11.90
2018-04-25T11:47:38.369Z,18.00
2018-04-25T11:52:41.819Z,13.60
2018-04-25T11:57:44.506Z,20.83
2018-04-25T12:02:47.905Z,21.00
2018-04-25T12:07:50.457Z,15.50
2018-04-25T12:12:53.663Z,18.23
2018-04-25T12:25:30.472Z,18.53
2018-04-25T12:30:33.516Z,21.00
2018-04-25T12:35:36.122Z,17.63
2018-04-25T12:40:39.063Z,21.13
2018-04-25T12:45:42.098Z,19.50
2018-04-25T12:50:44.643Z,26.43
2018-04-25T12:55:47.889Z,20.37
2018-04-25T13:00:51.680Z,10.73
2018-04-25T13:05:54.937Z,13.17
2018-04-25T13:10:59.398Z,11.03
2018-04-25T13:16:05.356Z,21.23
2018-04-25T13:21:08.215Z,14.00
2018-04-25T13:26:11.218Z,15.73
2018-04-25T13:31:16.472Z,24.77
2018-04-25T13:36:19.836Z,22.97
2018-04-25T13:41:22.409Z,14.60
2018-04-25T13:46:25.487Z,18.50
2018-04-25T13:51:28.904Z,22.60
2018-04-25T13:56:32.254Z,21.10
2018-04-25T14:01:34.871Z,27.40
2018-04-25T14:06:38.733Z,21.50
2018-04-25T14:11:41.294Z,23.50
2018-04-25T14:16:43.865Z,20.33
2018-04-25T14:21:47.085Z,21.10
2018-04-25T14:26:50.094Z,20.00
2018-04-25T14:31:52.663Z,20.97
2018-04-25T14:36:56.323Z,18.53
2018-04-25T14:41:58.994Z,18.33
2018-04-25T14:47:02.024Z,23.87
2018-04-25T14:52:05.283Z,21.83
2018-04-25T14:57:08.010Z,22.13
2018-04-25T15:02:10.620Z,23.50
2018-04-25T15:07:13.203Z,26.70
2018-04-25T15:12:16.542Z,23.07
2018-04-25T15:17:19.122Z,20.43
2018-04-25T15:22:22.935Z,37.97
2018-04-25T15:27:26.360Z,21.43
2018-04-25T15:32:29.753Z,15.83
2018-04-25T15:37:34.227Z,20.20
2018-04-25T15:42:37.943Z,19.50
2018-04-25T15:47:41.286Z,19.10
2018-04-25T15:58:13.511Z,21.23
2018-04-25T16:03:16.111Z,23.77
2018-04-25T16:08:18.715Z,18.67
2018-04-25T16:13:21.282Z,25.40
2018-04-25T16:18:24.618Z,16.63
2018-04-25T16:23:27.201Z,17.70
2018-04-25T16:28:31.365Z,17.53
2018-04-25T16:33:33.974Z,22.97
2018-04-25T16:38:37.525Z,18.50
2018-04-25T16:43:40.033Z,23.73
2018-04-25T16:48:43.344Z,13.70
2018-04-25T16:53:46.044Z,15.80
2018-04-25T16:58:48.648Z,18.37
2018-04-25T17:03:53.830Z,15.93
2018-04-25T17:08:56.442Z,21.43
2018-04-25T17:13:59.124Z,16.90
2018-04-25T17:19:02.462Z,12.60
2018-04-25T17:24:07.086Z,18.20
2018-04-25T17:29:11.061Z,15.60
2018-04-25T17:34:13.711Z,13.43
2018-04-25T17:39:18.091Z,18.23
2018-04-25T17:44:20.671Z,13.73
2018-04-25T17:49:23.925Z,14.47
2018-04-25T17:54:26.499Z,21.00
2018-04-25T17:59:29.097Z,17.53
2018-04-25T18:04:31.956Z,18.73
2018-04-25T18:09:35.177Z,15.33
2018-04-25T18:14:38.843Z,18.87
2018-04-25T18:19:42.725Z,33.77
2018-04-25T18:24:46.013Z,17.90
2018-04-25T18:29:49.199Z,16.60
2018-04-25T18:34:51.807Z,14.67
2018-04-25T18:39:55.015Z,14.07
2018-04-25T18:44:58.357Z,19.60
2018-04-25T18:50:00.922Z,14.33
2018-04-25T18:55:04.158Z,16.40
2018-04-25T19:00:06.958Z,21.40
2018-04-25T19:05:09.908Z,16.83
2018-04-25T19:10:12.510Z,15.27
2018-04-25T19:15:17.919Z,13.70
2018-04-25T19:20:20.519Z,18.97
2018-04-25T19:25:23.129Z,13.80
2018-04-25T19:30:32.375Z,14.60
2018-04-25T19:35:34.983Z,15.03
2018-04-25T19:40:39.568Z,16.50
2018-04-25T19:45:43.589Z,13.83
2018-04-25T19:50:46.948Z,18.30
2018-04-25T19:55:49.774Z,11.13
2018-04-25T20:00:52.355Z,16.40
2018-04-25T20:05:54.944Z,16.37
2018-04-25T20:10:57.521Z,15.73
2018-04-25T20:16:00.855Z,11.63
2018-04-25T20:21:03.718Z,14.53
2018-04-25T20:26:12.478Z,13.50
2018-04-25T20:31:15.066Z,12.60
2018-04-25T20:36:18.408Z,14.87
2018-04-25T20:41:21.027Z,14.13
2018-04-25T20:46:23.583Z,12.80
2018-04-25T20:51:26.904Z,14.70
2018-04-25T20:56:30.783Z,12.00
2018-04-25T21:01:33.347Z,14.73
2018-04-25T21:12:04.464Z,10.90
2018-04-25T21:17:07.069Z,9.17
2018-04-25T21:22:09.888Z,10.10
2018-04-25T21:27:12.470Z,6.77
2018-04-25T21:32:15.023Z,4.67
2018-04-25T21:37:18.379Z,7.43
2018-04-25T21:42:21.586Z,5.13
2018-04-25T21:47:24.169Z,6.47
2018-04-25T21:52:26.812Z,3.47
2018-04-25T21:57:29.469Z,5.23
2018-04-25T22:02:32.036Z,7.30
2018-04-25T22:07:35.221Z,2.00
2018-04-25T22:12:37.781Z,2.10
2018-04-25T22:17:42.367Z,6.30
2018-04-25T22:22:45.388Z,1.90
2018-04-25T22:27:47.993Z,3.57
2018-04-25T22:32:50.715Z,2.17
2018-04-25T22:37:54.057Z,2.53
2018-04-25T22:42:56.653Z,3.83
2018-04-25T22:47:59.242Z,2.00
2018-04-25T22:53:02.009Z,4.30
2018-04-25T22:58:04.581Z,2.07
2018-04-25T23:03:07.164Z,1.77
2018-04-25T23:08:09.755Z,2.13
2018-04-25T23:13:12.304Z,16.23
2018-04-25T23:18:15.209Z,6.27
2018-04-25T23:23:20.465Z,2.43
2018-04-25T23:28:24.124Z,2.10
2018-04-25T23:33:29.937Z,2.93
2018-04-25T23:38:33.617Z,1.73
2018-04-25T23:43:36.945Z,2.50
2018-04-25T23:48:39.524Z,2.33
2018-04-25T23:53:42.866Z,6.80
2018-04-25T23:58:45.443Z,12.97
